Airfield :
LOGIN :

Register | Disclaimer

   EN    FR    IT 

 










Legend :    VFR   Marginal VFR   IFR   Intensive IFR   Very Intensive IFR
Visi :
Ceiling :
>= 8 km
>= 3000ft
5 to 8 km
1000 to 3000 ft
1500m to 5 km
500 to 1000 ft
800 to 1500m
200 to 500 ft
< 800m
< 200 ft
Symbols :   Thunderstorms  Fog  Heavy snow  Heavy precipitations  Wind > 20 kt
SIGMETs :     Misc.  Thunderstorms  Icing  Turbulence  Mountain Waves  Volcanic Ashes







- Airport Elevation : 600 ft
- IATA code : VIE


LOWW - Vienna Schwechat

CURRENT METAR :
  • 251450Z 31007KT 280V340 9999 FEW040 BKN080 20/09 Q1020 NOSIG

EXPIRED METARs :
  • 251420Z 31009KT 9999 FEW040 BKN070 19/09 Q1020 NOSIG
  • 251350Z 31008KT 270V340 9999 FEW040 SCT044 BKN070 19/09 Q1020 NOSIG
  • 251320Z 31006KT 280V350 9999 FEW034 BKN070 19/10 Q1020 NOSIG
  • 251250Z 33007KT 290V360 9999 FEW034 BKN060 18/10 Q1020 NOSIG
  • 251220Z 33009KT 290V350 9999 FEW050 BKN060 18/10 Q1020 NOSIG

TAF TAF LOWW
Valid from the 25 at 15:00 until the 26 at 21:00 UTC


251415Z 2515/2621 33010KT 9999 FEW040 SCT055 BKN070 TX24/2612Z TN14/2603Z
PROB30
TEMPO 2521/2606 34015KT SHRA FEW040TCU BKN050
PROB40
TEMPO 2611/2618 34015G25KT 4000 TSRA FEW040CB BKN050
No reported NOTAMs for that airfield.



MET'MAP, your aeronautical weather chart ! - Copyright ORBIFLY December 2007 - Disclaimer

ORBIFLY MET'MAP TEAM :

Programming & Development : Alexandra Zaïnal
Concept & Development : Baudouin d'Aumeries
Co-Development & Prog : Marc-Olivier Méhu
Technical & hardware support : Manuel Goepfert

Contact : metmap@orbifly.com




SOURCES & CREDITS :

   NOAA